sensor_id;sensor_type;location;lat;lon;timestamp;pressure;altitude;pressure_sealevel;temperature;humidity
13068;BME280;6600;51.362;6.686;2023-01-27T00:00:20;101888.53;;;5.52;100.00
13068;BME280;6600;51.362;6.686;2023-01-27T00:02:46;101892.78;;;5.63;100.00
13068;BME280;6600;51.362;6.686;2023-01-27T00:05:12;101886.09;;;5.59;100.00
13068;BME280;6600;51.362;6.686;2023-01-27T00:07:39;101893.25;;;5.58;100.00
13068;BME280;6600;51.362;6.686;2023-01-27T00:10:11;101891.28;;;5.60;100.00
13068;BME280;6600;51.362;6.686;2023-01-27T00:12:37;101888.22;;;5.55;100.00
13068;BME280;6600;51.362;6.686;2023-01-27T00:15:20;101884.28;;;5.59;100.00
13068;BME280;6600;51.362;6.686;2023-01-27T00:17:46;101888.22;;;5.55;100.00
13068;BME280;6600;51.362;6.686;2023-01-27T00:20:11;101884.28;;;5.59;100.00
13068;BME280;6600;51.362;6.686;2023-01-27T00:22:36;101886.91;;;5.51;100.00
13068;BME280;6600;51.362;6.686;2023-01-27T00:25:20;101883.44;;;5.59;100.00
13068;BME280;6600;51.362;6.686;2023-01-27T00:27:46;101890.59;;;5.58;100.00
13068;BME280;6600;51.362;6.686;2023-01-27T00:30:12;101890.97;;;5.64;100.00
13068;BME280;6600;51.362;6.686;2023-01-27T00:32:38;101891.22;;;5.52;100.00
13068;BME280;6600;51.362;6.686;2023-01-27T00:35:22;101894.19;;;5.49;100.00
13068;BME280;6600;51.362;6.686;2023-01-27T00:37:47;101895.84;;;5.50;100.00
13068;BME280;6600;51.362;6.686;2023-01-27T00:40:14;101894.56;;;5.54;100.00
13068;BME280;6600;51.362;6.686;2023-01-27T00:42:40;101893.88;;;5.52;100.00
13068;BME280;6600;51.362;6.686;2023-01-27T00:45:06;101894.03;;;5.51;100.00
13068;BME280;6600;51.362;6.686;2023-01-27T00:47:50;101898.97;;;5.46;100.00
13068;BME280;6600;51.362;6.686;2023-01-27T00:50:17;101895.78;;;5.42;100.00
13068;BME280;6600;51.362;6.686;2023-01-27T00:52:43;101901.47;;;5.47;100.00
13068;BME280;6600;51.362;6.686;2023-01-27T00:55:09;101893.88;;;5.52;100.00
13068;BME280;6600;51.362;6.686;2023-01-27T00:57:35;101898.34;;;5.52;100.00
13068;BME280;6600;51.362;6.686;2023-01-27T01:00:02;101892.81;;;5.45;100.00
13068;BME280;6600;51.362;6.686;2023-01-27T01:02:27;101889.16;;;5.46;100.00
13068;BME280;6600;51.362;6.686;2023-01-27T01:04:52;101898.75;;;5.39;100.00
13068;BME280;6600;51.362;6.686;2023-01-27T01:07:18;101888.19;;;5.47;100.00
13068;BME280;6600;51.362;6.686;2023-01-27T01:09:43;101889.47;;;5.43;100.00
13068;BME280;6600;51.362;6.686;2023-01-27T01:12:08;101893.03;;;5.52;100.00
13068;BME280;6600;51.362;6.686;2023-01-27T01:14:34;101897.22;;;5.54;100.00
13068;BME280;6600;51.362;6.686;2023-01-27T01:16:59;101909.81;;;5.52;100.00
13068;BME280;6600;51.362;6.686;2023-01-27T01:19:24;101906.28;;;5.44;100.00
13068;BME280;6600;51.362;6.686;2023-01-27T01:21:49;101909.69;;;5.54;100.00
13068;BME280;6600;51.362;6.686;2023-01-27T01:24:15;101915.53;;;5.57;100.00
13068;BME280;6600;51.362;6.686;2023-01-27T01:26:40;101915.44;;;5.49;100.00
13068;BME280;6600;51.362;6.686;2023-01-27T01:29:06;101914.06;;;5.45;100.00
13068;BME280;6600;51.362;6.686;2023-01-27T01:31:31;101916.13;;;5.51;100.00
13068;BME280;6600;51.362;6.686;2023-01-27T01:33:56;101914.69;;;5.39;100.00
13068;BME280;6600;51.362;6.686;2023-01-27T01:36:22;101921.28;;;5.35;100.00
13068;BME280;6600;51.362;6.686;2023-01-27T01:38:47;101924.13;;;5.51;100.00
13068;BME280;6600;51.362;6.686;2023-01-27T01:41:16;101928.59;;;5.51;100.00
13068;BME280;6600;51.362;6.686;2023-01-27T01:43:42;101931.63;;;5.38;100.00
13068;BME280;6600;51.362;6.686;2023-01-27T01:46:09;101926.31;;;5.38;100.00
13068;BME280;6600;51.362;6.686;2023-01-27T01:51:10;101928.97;;;5.38;100.00
13068;BME280;6600;51.362;6.686;2023-01-27T01:56:22;101929.03;;;5.46;100.00
13068;BME280;6600;51.362;6.686;2023-01-27T01:58:48;101931.41;;;5.49;100.00
13068;BME280;6600;51.362;6.686;2023-01-27T02:01:17;101942.03;;;5.49;100.00
13068;BME280;6600;51.362;6.686;2023-01-27T02:03:47;101933.38;;;5.47;100.00
13068;BME280;6600;51.362;6.686;2023-01-27T02:06:14;101935.66;;;5.42;100.00
13068;BME280;6600;51.362;6.686;2023-01-27T02:08:43;101945.00;;;5.46;100.00
13068;BME280;6600;51.362;6.686;2023-01-27T02:11:09;101948.63;;;5.45;100.00
13068;BME280;6600;51.362;6.686;2023-01-27T02:13:36;101941.56;;;5.36;100.00
13068;BME280;6600;51.362;6.686;2023-01-27T02:16:01;101946.66;;;5.47;100.00
13068;BME280;6600;51.362;6.686;2023-01-27T02:18:27;101941.88;;;5.33;100.00
13068;BME280;6600;51.362;6.686;2023-01-27T02:20:53;101937.00;;;5.29;100.00
13068;BME280;6600;51.362;6.686;2023-01-27T02:23:35;101937.84;;;5.29;100.00
13068;BME280;6600;51.362;6.686;2023-01-27T02:26:16;101944.91;;;5.38;100.00
13068;BME280;6600;51.362;6.686;2023-01-27T02:28:43;101942.78;;;5.24;100.00
13068;BME280;6600;51.362;6.686;2023-01-27T02:31:09;101956.75;;;5.26;100.00
13068;BME280;6600;51.362;6.686;2023-01-27T02:33:34;101951.75;;;5.23;100.00
13068;BME280;6600;51.362;6.686;2023-01-27T02:36:06;101940.59;;;5.20;100.00
13068;BME280;6600;51.362;6.686;2023-01-27T02:38:36;101963.25;;;5.14;100.00
13068;BME280;6600;51.362;6.686;2023-01-27T02:41:10;101946.75;;;5.20;100.00
13068;BME280;6600;51.362;6.686;2023-01-27T02:43:38;101960.84;;;5.03;100.00
13068;BME280;6600;51.362;6.686;2023-01-27T02:46:03;101949.72;;;4.90;100.00
13068;BME280;6600;51.362;6.686;2023-01-27T02:48:29;101960.84;;;5.03;100.00
13068;BME280;6600;51.362;6.686;2023-01-27T02:50:54;101964.56;;;5.10;100.00
13068;BME280;6600;51.362;6.686;2023-01-27T02:53:19;101960.84;;;5.03;100.00
13068;BME280;6600;51.362;6.686;2023-01-27T02:55:45;101970.69;;;4.93;100.00
13068;BME280;6600;51.362;6.686;2023-01-27T02:58:10;101959.84;;;4.77;100.00
13068;BME280;6600;51.362;6.686;2023-01-27T03:00:36;101966.25;;;4.84;100.00
13068;BME280;6600;51.362;6.686;2023-01-27T03:03:01;101968.22;;;4.82;100.00
13068;BME280;6600;51.362;6.686;2023-01-27T03:05:26;101972.25;;;4.86;100.00
13068;BME280;6600;51.362;6.686;2023-01-27T03:07:52;101973.03;;;4.69;100.00
13068;BME280;6600;51.362;6.686;2023-01-27T03:10:17;101975.78;;;4.77;100.00
13068;BME280;6600;51.362;6.686;2023-01-27T03:12:43;101976.31;;;4.80;100.00
13068;BME280;6600;51.362;6.686;2023-01-27T03:15:09;101982.81;;;4.68;100.00
13068;BME280;6600;51.362;6.686;2023-01-27T03:17:53;101982.56;;;4.62;100.00
13068;BME280;6600;51.362;6.686;2023-01-27T03:20:38;101990.91;;;4.67;100.00
13068;BME280;6600;51.362;6.686;2023-01-27T03:23:04;101985.00;;;4.73;100.00
13068;BME280;6600;51.362;6.686;2023-01-27T03:25:29;101974.78;;;4.50;100.00
13068;BME280;6600;51.362;6.686;2023-01-27T03:27:55;101982.28;;;4.65;100.00
13068;BME280;6600;51.362;6.686;2023-01-27T03:30:21;101976.38;;;4.71;100.00
13068;BME280;6600;51.362;6.686;2023-01-27T03:32:46;101981.97;;;4.68;100.00
13068;BME280;6600;51.362;6.686;2023-01-27T03:35:13;101985.31;;;4.70;100.00
13068;BME280;6600;51.362;6.686;2023-01-27T03:37:40;101978.34;;;4.69;100.00
13068;BME280;6600;51.362;6.686;2023-01-27T03:40:24;101971.66;;;4.65;100.00
13068;BME280;6600;51.362;6.686;2023-01-27T03:43:08;101981.72;;;4.61;100.00
13068;BME280;6600;51.362;6.686;2023-01-27T03:45:52;101985.25;;;4.52;100.00
13068;BME280;6600;51.362;6.686;2023-01-27T03:48:36;101986.19;;;4.61;100.00
13068;BME280;6600;51.362;6.686;2023-01-27T03:51:04;101981.22;;;4.48;100.00
13068;BME280;6600;51.362;6.686;2023-01-27T03:53:31;101988.16;;;4.58;100.00
13068;BME280;6600;51.362;6.686;2023-01-27T03:55:56;101991.38;;;4.52;100.00
13068;BME280;6600;51.362;6.686;2023-01-27T03:58:27;101994.88;;;4.53;100.00
13068;BME280;6600;51.362;6.686;2023-01-27T04:01:01;101992.31;;;4.71;100.00
13068;BME280;6600;51.362;6.686;2023-01-27T04:03:30;101994.28;;;4.69;100.00
13068;BME280;6600;51.362;6.686;2023-01-27T04:06:17;101991.50;;;4.61;100.00
13068;BME280;6600;51.362;6.686;2023-01-27T04:09:02;101990.13;;;4.56;100.00
13068;BME280;6600;51.362;6.686;2023-01-27T04:11:28;101994.34;;;4.49;100.00
13068;BME280;6600;51.362;6.686;2023-01-27T04:14:13;101995.00;;;4.61;100.00
13068;BME280;6600;51.362;6.686;2023-01-27T04:16:38;101991.25;;;4.54;100.00
13068;BME280;6600;51.362;6.686;2023-01-27T04:19:05;101988.16;;;4.58;100.00
13068;BME280;6600;51.362;6.686;2023-01-27T04:21:31;102004.06;;;4.58;100.00
13068;BME280;6600;51.362;6.686;2023-01-27T04:23:57;101995.97;;;4.60;100.00
13068;BME280;6600;51.362;6.686;2023-01-27T04:26:23;101998.25;;;4.55;100.00
13068;BME280;6600;51.362;6.686;2023-01-27T04:28:49;102002.72;;;4.54;100.00
13068;BME280;6600;51.362;6.686;2023-01-27T04:31:15;102004.66;;;4.52;100.00
13068;BME280;6600;51.362;6.686;2023-01-27T04:33:42;102009.38;;;4.58;100.00
13068;BME280;6600;51.362;6.686;2023-01-27T04:36:09;101991.81;;;4.57;100.00
13068;BME280;6600;51.362;6.686;2023-01-27T04:38:35;101996.00;;;4.50;100.00
13068;BME280;6600;51.362;6.686;2023-01-27T04:41:00;101996.84;;;4.51;100.00
13068;BME280;6600;51.362;6.686;2023-01-27T04:43:25;102001.63;;;4.47;100.00
13068;BME280;6600;51.362;6.686;2023-01-27T04:45:51;102005.50;;;4.53;100.00
13068;BME280;6600;51.362;6.686;2023-01-27T04:48:16;102008.56;;;4.48;100.00
13068;BME280;6600;51.362;6.686;2023-01-27T04:50:41;102010.81;;;4.53;100.00
13068;BME280;6600;51.362;6.686;2023-01-27T04:53:07;102005.13;;;4.48;100.00
13068;BME280;6600;51.362;6.686;2023-01-27T04:55:32;102016.44;;;4.40;100.00
13068;BME280;6600;51.362;6.686;2023-01-27T04:57:57;102010.03;;;4.33;100.00
13068;BME280;6600;51.362;6.686;2023-01-27T05:00:23;102005.81;;;4.40;100.00
13068;BME280;6600;51.362;6.686;2023-01-27T05:02:48;102013.63;;;4.51;100.00
13068;BME280;6600;51.362;6.686;2023-01-27T05:05:14;102014.97;;;4.55;100.00
13068;BME280;6600;51.362;6.686;2023-01-27T05:07:39;102009.97;;;4.52;100.00
13068;BME280;6600;51.362;6.686;2023-01-27T05:10:05;102021.69;;;4.59;100.00
13068;BME280;6600;51.362;6.686;2023-01-27T05:12:32;102018.09;;;4.51;100.00
13068;BME280;6600;51.362;6.686;2023-01-27T05:14:57;102011.47;;;4.65;100.00
13068;BME280;6600;51.362;6.686;2023-01-27T05:17:23;102013.31;;;4.54;100.00
13068;BME280;6600;51.362;6.686;2023-01-27T05:19:48;102016.50;;;4.68;100.00
13068;BME280;6600;51.362;6.686;2023-01-27T05:22:13;102014.97;;;4.55;100.00
13068;BME280;6600;51.362;6.686;2023-01-27T05:24:38;102014.19;;;4.45;100.00
13068;BME280;6600;51.362;6.686;2023-01-27T05:27:04;102016.91;;;4.63;100.00
13068;BME280;6600;51.362;6.686;2023-01-27T05:29:30;102016.66;;;4.56;100.00
13068;BME280;6600;51.362;6.686;2023-01-27T05:31:55;102018.63;;;4.54;100.00
13068;BME280;6600;51.362;6.686;2023-01-27T05:34:21;102019.56;;;4.63;100.00
13068;BME280;6600;51.362;6.686;2023-01-27T05:36:46;102028.00;;;4.49;100.00
13068;BME280;6600;51.362;6.686;2023-01-27T05:39:11;102022.94;;;4.55;100.00
13068;BME280;6600;51.362;6.686;2023-01-27T05:41:37;102029.50;;;4.61;100.00
13068;BME280;6600;51.362;6.686;2023-01-27T05:44:03;102029.81;;;4.58;100.00
13068;BME280;6600;51.362;6.686;2023-01-27T05:46:30;102033.97;;;4.61;100.00
13068;BME280;6600;51.362;6.686;2023-01-27T05:48:58;102046.97;;;4.64;100.00
13068;BME280;6600;51.362;6.686;2023-01-27T05:51:27;102037.16;;;4.74;100.00
13068;BME280;6600;51.362;6.686;2023-01-27T05:53:53;102034.38;;;4.66;100.00
13068;BME280;6600;51.362;6.686;2023-01-27T05:56:21;102043.34;;;4.65;100.00
13068;BME280;6600;51.362;6.686;2023-01-27T05:58:47;102034.78;;;4.71;100.00
13068;BME280;6600;51.362;6.686;2023-01-27T06:01:15;102038.41;;;4.70;100.00
13068;BME280;6600;51.362;6.686;2023-01-27T06:03:42;102029.03;;;4.75;100.00
13068;BME280;6600;51.362;6.686;2023-01-27T06:06:09;102029.28;;;4.82;100.00
13068;BME280;6600;51.362;6.686;2023-01-27T06:08:35;102041.44;;;4.84;100.00
13068;BME280;6600;51.362;6.686;2023-01-27T06:11:01;102035.47;;;4.73;100.00
13068;BME280;6600;51.362;6.686;2023-01-27T06:13:27;102037.44;;;4.71;100.00
13068;BME280;6600;51.362;6.686;2023-01-27T06:15:52;102037.41;;;4.80;100.00
13068;BME280;6600;51.362;6.686;2023-01-27T06:18:20;102029.84;;;4.85;100.00
13068;BME280;6600;51.362;6.686;2023-01-27T06:20:45;102032.50;;;4.85;100.00
13068;BME280;6600;51.362;6.686;2023-01-27T06:23:13;102032.63;;;4.84;100.00
13068;BME280;6600;51.362;6.686;2023-01-27T06:25:41;102033.34;;;4.86;100.00
13068;BME280;6600;51.362;6.686;2023-01-27T06:28:07;102040.00;;;4.90;100.00
13068;BME280;6600;51.362;6.686;2023-01-27T06:30:34;102039.44;;;4.96;100.00
13068;BME280;6600;51.362;6.686;2023-01-27T06:32:59;102047.28;;;4.88;100.00
13068;BME280;6600;51.362;6.686;2023-01-27T06:35:25;102058.22;;;4.85;100.00
13068;BME280;6600;51.362;6.686;2023-01-27T06:37:50;102050.66;;;4.80;100.00
13068;BME280;6600;51.362;6.686;2023-01-27T06:40:16;102060.75;;;4.77;100.00
13068;BME280;6600;51.362;6.686;2023-01-27T06:42:42;102068.28;;;4.81;100.00
13068;BME280;6600;51.362;6.686;2023-01-27T06:45:09;102066.56;;;4.90;100.00
13068;BME280;6600;51.362;6.686;2023-01-27T06:47:34;102068.25;;;4.91;100.00
13068;BME280;6600;51.362;6.686;2023-01-27T06:50:00;102065.59;;;4.91;100.00
13068;BME280;6600;51.362;6.686;2023-01-27T06:52:25;102066.56;;;4.90;100.00
13068;BME280;6600;51.362;6.686;2023-01-27T06:54:50;102072.47;;;4.84;100.00
13068;BME280;6600;51.362;6.686;2023-01-27T06:57:16;102078.56;;;4.94;100.00
13068;BME280;6600;51.362;6.686;2023-01-27T06:59:41;102068.84;;;4.85;100.00
13068;BME280;6600;51.362;6.686;2023-01-27T07:02:09;102060.97;;;4.93;100.00
13068;BME280;6600;51.362;6.686;2023-01-27T07:04:35;102064.91;;;4.89;100.00
13068;BME280;6600;51.362;6.686;2023-01-27T07:07:01;102069.34;;;4.98;100.00
13068;BME280;6600;51.362;6.686;2023-01-27T07:09:26;102075.66;;;4.87;100.00
13068;BME280;6600;51.362;6.686;2023-01-27T07:11:51;102079.13;;;4.97;100.00
13068;BME280;6600;51.362;6.686;2023-01-27T07:14:17;102078.44;;;4.95;100.00
13068;BME280;6600;51.362;6.686;2023-01-27T07:16:42;102073.22;;;5.03;100.00
13068;BME280;6600;51.362;6.686;2023-01-27T07:19:08;102083.28;;;5.00;100.00
13068;BME280;6600;51.362;6.686;2023-01-27T07:21:33;102086.25;;;4.97;100.00
13068;BME280;6600;51.362;6.686;2023-01-27T07:23:58;102083.28;;;5.00;100.00
13068;BME280;6600;51.362;6.686;2023-01-27T07:26:23;102087.25;;;4.96;100.00
13068;BME280;6600;51.362;6.686;2023-01-27T07:28:49;102090.03;;;4.94;100.00
13068;BME280;6600;51.362;6.686;2023-01-27T07:31:14;102087.34;;;5.04;100.00
13068;BME280;6600;51.362;6.686;2023-01-27T07:33:39;102095.91;;;4.98;100.00
13068;BME280;6600;51.362;6.686;2023-01-27T07:36:05;102087.75;;;5.09;100.00
13068;BME280;6600;51.362;6.686;2023-01-27T07:38:30;102092.53;;;5.05;100.00
13068;BME280;6600;51.362;6.686;2023-01-27T07:40:55;102103.41;;;5.12;100.00
13068;BME280;6600;51.362;6.686;2023-01-27T07:43:22;102100.63;;;5.04;100.00
13068;BME280;6600;51.362;6.686;2023-01-27T07:45:52;102102.44;;;5.03;100.00
13068;BME280;6600;51.362;6.686;2023-01-27T07:48:17;102100.91;;;5.01;100.00
13068;BME280;6600;51.362;6.686;2023-01-27T07:50:43;102101.88;;;5.00;100.00
13068;BME280;6600;51.362;6.686;2023-01-27T07:53:09;102100.25;;;4.99;100.00
13068;BME280;6600;51.362;6.686;2023-01-27T07:55:34;102103.69;;;5.09;100.00
13068;BME280;6600;51.362;6.686;2023-01-27T07:58:00;102113.06;;;5.13;100.00
13068;BME280;6600;51.362;6.686;2023-01-27T08:00:26;102121.31;;;5.10;100.00
13068;BME280;6600;51.362;6.686;2023-01-27T08:02:53;102115.41;;;5.16;100.00
13068;BME280;6600;51.362;6.686;2023-01-27T08:05:19;102111.72;;;5.27;100.00
13068;BME280;6600;51.362;6.686;2023-01-27T08:07:45;102123.19;;;5.27;100.00
13068;BME280;6600;51.362;6.686;2023-01-27T08:10:11;102110.69;;;5.10;100.00
13068;BME280;6600;51.362;6.686;2023-01-27T08:12:36;102124.34;;;5.15;100.00
13068;BME280;6600;51.362;6.686;2023-01-27T08:15:02;102121.03;;;5.13;100.00
13068;BME280;6600;51.362;6.686;2023-01-27T08:17:28;102118.44;;;5.21;100.00
13068;BME280;6600;51.362;6.686;2023-01-27T08:19:53;102123.19;;;5.27;100.00
13068;BME280;6600;51.362;6.686;2023-01-27T08:22:19;102127.69;;;5.27;100.00
13068;BME280;6600;51.362;6.686;2023-01-27T08:24:50;102117.53;;;5.40;100.00
13068;BME280;6600;51.362;6.686;2023-01-27T08:27:15;102128.59;;;5.35;100.00
13068;BME280;6600;51.362;6.686;2023-01-27T08:29:41;102123.19;;;5.27;100.00
13068;BME280;6600;51.362;6.686;2023-01-27T08:32:07;102122.59;;;5.33;100.00
13068;BME280;6600;51.362;6.686;2023-01-27T08:34:32;102128.66;;;5.26;100.00
13068;BME280;6600;51.362;6.686;2023-01-27T08:36:58;102125.94;;;5.35;100.00
13068;BME280;6600;51.362;6.686;2023-01-27T08:39:23;102127.63;;;5.36;100.00
13068;BME280;6600;51.362;6.686;2023-01-27T08:41:49;102128.22;;;5.30;100.00
13068;BME280;6600;51.362;6.686;2023-01-27T08:44:14;102118.69;;;5.37;100.00
13068;BME280;6600;51.362;6.686;2023-01-27T08:46:39;102119.47;;;5.47;100.00
13068;BME280;6600;51.362;6.686;2023-01-27T08:49:05;102133.44;;;5.49;100.00
13068;BME280;6600;51.362;6.686;2023-01-27T08:51:30;102125.03;;;5.54;100.00
13068;BME280;6600;51.362;6.686;2023-01-27T08:53:55;102129.78;;;5.50;100.00
13068;BME280;6600;51.362;6.686;2023-01-27T08:56:21;102132.09;;;5.63;100.00
13068;BME280;6600;51.362;6.686;2023-01-27T08:58:46;102137.91;;;5.49;100.00
13068;BME280;6600;51.362;6.686;2023-01-27T09:01:13;102129.78;;;5.50;100.00
13068;BME280;6600;51.362;6.686;2023-01-27T09:03:38;102127.22;;;5.58;100.00
13068;BME280;6600;51.362;6.686;2023-01-27T09:06:07;102130.28;;;5.64;100.00
13068;BME280;6600;51.362;6.686;2023-01-27T09:08:32;102130.28;;;5.64;100.00
13068;BME280;6600;51.362;6.686;2023-01-27T09:10:58;102130.28;;;5.64;100.00
13068;BME280;6600;51.362;6.686;2023-01-27T09:13:23;102140.13;;;5.53;100.00
13068;BME280;6600;51.362;6.686;2023-01-27T09:15:52;102133.59;;;5.66;100.00
13068;BME280;6600;51.362;6.686;2023-01-27T09:18:18;102139.44;;;5.79;100.00
13068;BME280;6600;51.362;6.686;2023-01-27T09:20:43;102152.09;;;5.67;100.00
13068;BME280;6600;51.362;6.686;2023-01-27T09:23:09;102152.63;;;5.71;100.00
13068;BME280;6600;51.362;6.686;2023-01-27T09:25:34;102154.63;;;5.69;100.00
13068;BME280;6600;51.362;6.686;2023-01-27T09:27:59;102154.78;;;5.85;100.00
13068;BME280;6600;51.362;6.686;2023-01-27T09:30:27;102162.63;;;5.86;100.00
13068;BME280;6600;51.362;6.686;2023-01-27T09:32:57;102158.16;;;5.87;100.00
13068;BME280;6600;51.362;6.686;2023-01-27T09:35:22;102155.38;;;5.79;100.00
13068;BME280;6600;51.362;6.686;2023-01-27T09:37:51;102161.81;;;5.86;100.00
13068;BME280;6600;51.362;6.686;2023-01-27T09:48:42;102175.78;;;5.88;100.00
13068;BME280;6600;51.362;6.686;2023-01-27T09:53:57;102184.88;;;5.85;100.00
13068;BME280;6600;51.362;6.686;2023-01-27T09:56:40;102196.50;;;5.84;100.00
13068;BME280;6600;51.362;6.686;2023-01-27T10:02:11;102186.31;;;5.89;100.00
13068;BME280;6600;51.362;6.686;2023-01-27T10:08:20;102169.88;;;5.94;100.00
13068;BME280;6600;51.362;6.686;2023-01-27T10:19:17;102173.94;;;6.16;100.00
13068;BME280;6600;51.362;6.686;2023-01-27T10:21:51;102178.56;;;5.96;100.00
13068;BME280;6600;51.362;6.686;2023-01-27T10:27:01;102178.03;;;5.92;100.00
13068;BME280;6600;51.362;6.686;2023-01-27T10:29:39;102171.72;;;6.11;100.00
13068;BME280;6600;51.362;6.686;2023-01-27T10:40:24;102171.56;;;5.95;100.00
13068;BME280;6600;51.362;6.686;2023-01-27T10:43:00;102173.41;;;6.12;100.00
13068;BME280;6600;51.362;6.686;2023-01-27T10:45:37;102177.59;;;6.32;100.00
13068;BME280;6600;51.362;6.686;2023-01-27T10:56:18;102172.47;;;6.21;100.00
13068;BME280;6600;51.362;6.686;2023-01-27T11:01:31;102169.75;;;6.13;100.00
13068;BME280;6600;51.362;6.686;2023-01-27T11:04:23;102166.78;;;6.34;100.00
13068;BME280;6600;51.362;6.686;2023-01-27T11:06:53;102162.91;;;6.28;100.00
13068;BME280;6600;51.362;6.686;2023-01-27T11:09:28;102163.97;;;6.35;100.00
13068;BME280;6600;51.362;6.686;2023-01-27T11:11:58;102154.69;;;6.39;100.00
13068;BME280;6600;51.362;6.686;2023-01-27T11:14:51;102157.22;;;6.41;100.00
13068;BME280;6600;51.362;6.686;2023-01-27T11:20:32;102154.00;;;6.20;100.00
13068;BME280;6600;51.362;6.686;2023-01-27T11:25:52;102153.19;;;6.19;100.00
13068;BME280;6600;51.362;6.686;2023-01-27T11:28:52;102152.25;;;6.28;100.00
13068;BME280;6600;51.362;6.686;2023-01-27T11:33:55;102153.63;;;6.32;100.00
13068;BME280;6600;51.362;6.686;2023-01-27T11:36:24;102160.94;;;6.13;100.00
13068;BME280;6600;51.362;6.686;2023-01-27T11:38:52;102149.34;;;6.04;100.00
13068;BME280;6600;51.362;6.686;2023-01-27T11:41:18;102153.84;;;6.21;100.00
13068;BME280;6600;51.362;6.686;2023-01-27T11:43:44;102152.88;;;6.22;100.00
13068;BME280;6600;51.362;6.686;2023-01-27T11:46:16;102152.63;;;6.16;100.00
13068;BME280;6600;51.362;6.686;2023-01-27T11:48:46;102152.88;;;6.22;100.00
13068;BME280;6600;51.362;6.686;2023-01-27T11:51:17;102147.09;;;6.09;100.00
13068;BME280;6600;51.362;6.686;2023-01-27T11:53:49;102152.25;;;6.28;100.00
13068;BME280;6600;51.362;6.686;2023-01-27T11:56:17;102154.09;;;6.10;100.00
13068;BME280;6600;51.362;6.686;2023-01-27T12:01:16;102139.66;;;6.30;100.00
13068;BME280;6600;51.362;6.686;2023-01-27T12:03:57;102139.34;;;6.33;100.00
13068;BME280;6600;51.362;6.686;2023-01-27T12:07:13;102138.41;;;6.25;100.00
13068;BME280;6600;51.362;6.686;2023-01-27T12:09:35;102129.00;;;6.30;100.00
13068;BME280;6600;51.362;6.686;2023-01-27T12:14:47;102134.75;;;6.43;100.00
13068;BME280;6600;51.362;6.686;2023-01-27T12:17:20;102131.72;;;6.38;100.00
13068;BME280;6600;51.362;6.686;2023-01-27T12:19:46;102136.66;;;6.33;100.00
13068;BME280;6600;51.362;6.686;2023-01-27T12:22:33;102132.25;;;6.42;100.00
13068;BME280;6600;51.362;6.686;2023-01-27T12:25:06;102132.94;;;6.26;100.00
13068;BME280;6600;51.362;6.686;2023-01-27T12:27:47;102134.91;;;6.24;100.00
13068;BME280;6600;51.362;6.686;2023-01-27T12:30:21;102129.59;;;6.24;100.00
13068;BME280;6600;51.362;6.686;2023-01-27T12:32:47;102132.94;;;6.26;100.00
13068;BME280;6600;51.362;6.686;2023-01-27T12:35:36;102132.00;;;6.35;100.00
13068;BME280;6600;51.362;6.686;2023-01-27T12:38:06;102120.41;;;6.19;100.00
13068;BME280;6600;51.362;6.686;2023-01-27T12:40:39;102123.66;;;6.30;100.00
13068;BME280;6600;51.362;6.686;2023-01-27T12:43:11;102125.63;;;6.28;100.00
13068;BME280;6600;51.362;6.686;2023-01-27T12:45:38;102126.38;;;6.38;100.00
13068;BME280;6600;51.362;6.686;2023-01-27T12:50:40;102122.44;;;6.42;100.00
13068;BME280;6600;51.362;6.686;2023-01-27T12:53:16;102122.13;;;6.45;100.00
13068;BME280;6600;51.362;6.686;2023-01-27T12:55:55;102124.00;;;6.53;100.00
13068;BME280;6600;51.362;6.686;2023-01-27T13:00:55;102116.53;;;6.31;100.00
13068;BME280;6600;51.362;6.686;2023-01-27T13:03:22;102116.13;;;6.43;100.00
13068;BME280;6600;51.362;6.686;2023-01-27T13:05:52;102124.41;;;6.40;100.00
13068;BME280;6600;51.362;6.686;2023-01-27T13:08:18;102116.88;;;6.36;100.00
13068;BME280;6600;51.362;6.686;2023-01-27T13:10:53;102115.41;;;6.41;100.00
13068;BME280;6600;51.362;6.686;2023-01-27T13:13:23;102116.44;;;6.40;100.00
13068;BME280;6600;51.362;6.686;2023-01-27T13:15:55;102117.53;;;6.55;100.00
13068;BME280;6600;51.362;6.686;2023-01-27T13:18:21;102123.06;;;6.62;100.00
13068;BME280;6600;51.362;6.686;2023-01-27T13:20:54;102123.47;;;6.49;100.00
13068;BME280;6600;51.362;6.686;2023-01-27T13:23:25;102122.81;;;6.47;100.00
13068;BME280;6600;51.362;6.686;2023-01-27T13:31:11;102133.44;;;6.65;100.00
13068;BME280;6600;51.362;6.686;2023-01-27T13:34:23;102139.28;;;6.69;100.00
13068;BME280;6600;51.362;6.686;2023-01-27T13:37:03;102136.66;;;6.77;100.00
13068;BME280;6600;51.362;6.686;2023-01-27T13:39:54;102143.72;;;6.42;100.00
13068;BME280;6600;51.362;6.686;2023-01-27T13:42:46;102148.06;;;6.43;100.00
13068;BME280;6600;51.362;6.686;2023-01-27T13:45:17;102140.31;;;6.50;100.00
13068;BME280;6600;51.362;6.686;2023-01-27T13:48:00;102139.03;;;6.36;100.00
13068;BME280;6600;51.362;6.686;2023-01-27T13:50:39;102143.38;;;6.37;100.00
13068;BME280;6600;51.362;6.686;2023-01-27T13:53:15;102146.06;;;6.45;99.79
13068;BME280;6600;51.362;6.686;2023-01-27T13:56:03;102147.53;;;6.57;98.82
13068;BME280;6600;51.362;6.686;2023-01-27T13:58:53;102150.13;;;6.49;98.94
13068;BME280;6600;51.362;6.686;2023-01-27T14:01:37;102162.06;;;6.45;97.49
13068;BME280;6600;51.362;6.686;2023-01-27T14:12:18;102154.16;;;6.79;95.39
13068;BME280;6600;51.362;6.686;2023-01-27T14:15:21;102167.25;;;6.73;94.42
13068;BME280;6600;51.362;6.686;2023-01-27T14:18:20;102158.22;;;6.66;94.60
13068;BME280;6600;51.362;6.686;2023-01-27T14:29:09;102162.56;;;6.67;96.87
13068;BME280;6600;51.362;6.686;2023-01-27T14:35:01;102161.59;;;6.50;97.84
13068;BME280;6600;51.362;6.686;2023-01-27T14:43:25;102157.88;;;6.25;98.90
13068;BME280;6600;51.362;6.686;2023-01-27T14:45:57;102161.38;;;6.43;98.55
13068;BME280;6600;51.362;6.686;2023-01-27T14:48:55;102163.06;;;6.44;99.12
13068;BME280;6600;51.362;6.686;2023-01-27T14:51:40;102163.06;;;6.44;99.50
13068;BME280;6600;51.362;6.686;2023-01-27T15:05:24;102172.47;;;6.21;99.97